sensor_id;sensor_type;location;lat;lon;timestamp;temperature;humidity
11736;DHT22;5924;51.398;7.088;2022-10-18T00:01:47;14.60;99.90
11736;DHT22;5924;51.398;7.088;2022-10-18T00:04:12;14.60;99.90
11736;DHT22;5924;51.398;7.088;2022-10-18T00:06:38;14.60;99.90
11736;DHT22;5924;51.398;7.088;2022-10-18T00:09:04;14.60;99.90
11736;DHT22;5924;51.398;7.088;2022-10-18T00:11:29;14.60;99.90
11736;DHT22;5924;51.398;7.088;2022-10-18T00:13:56;14.60;99.90
11736;DHT22;5924;51.398;7.088;2022-10-18T00:16:22;14.60;99.90
11736;DHT22;5924;51.398;7.088;2022-10-18T00:18:47;14.60;99.90
11736;DHT22;5924;51.398;7.088;2022-10-18T00:21:16;14.60;99.90
11736;DHT22;5924;51.398;7.088;2022-10-18T00:23:42;14.60;99.90
11736;DHT22;5924;51.398;7.088;2022-10-18T00:26:17;14.60;99.90
11736;DHT22;5924;51.398;7.088;2022-10-18T00:28:43;14.60;99.90
11736;DHT22;5924;51.398;7.088;2022-10-18T00:31:22;14.60;99.90
11736;DHT22;5924;51.398;7.088;2022-10-18T00:33:51;14.60;99.90
11736;DHT22;5924;51.398;7.088;2022-10-18T00:36:18;14.50;99.90
11736;DHT22;5924;51.398;7.088;2022-10-18T00:38:44;14.60;99.90
11736;DHT22;5924;51.398;7.088;2022-10-18T00:41:12;14.60;99.90
11736;DHT22;5924;51.398;7.088;2022-10-18T00:43:58;14.60;99.90
11736;DHT22;5924;51.398;7.088;2022-10-18T00:46:29;14.60;99.90
11736;DHT22;5924;51.398;7.088;2022-10-18T00:48:58;14.60;99.90
11736;DHT22;5924;51.398;7.088;2022-10-18T00:51:27;14.60;99.90
11736;DHT22;5924;51.398;7.088;2022-10-18T00:53:54;14.60;99.90
11736;DHT22;5924;51.398;7.088;2022-10-18T00:56:20;14.60;99.90
11736;DHT22;5924;51.398;7.088;2022-10-18T00:58:47;14.70;99.90
11736;DHT22;5924;51.398;7.088;2022-10-18T01:01:13;14.60;99.90
11736;DHT22;5924;51.398;7.088;2022-10-18T01:03:40;14.60;99.90
11736;DHT22;5924;51.398;7.088;2022-10-18T01:06:07;14.60;99.90
11736;DHT22;5924;51.398;7.088;2022-10-18T01:11:32;14.60;99.90
11736;DHT22;5924;51.398;7.088;2022-10-18T01:16:56;14.60;99.90
11736;DHT22;5924;51.398;7.088;2022-10-18T01:19:54;14.60;99.90
11736;DHT22;5924;51.398;7.088;2022-10-18T01:22:34;14.50;99.90
11736;DHT22;5924;51.398;7.088;2022-10-18T01:25:15;14.50;99.90
11736;DHT22;5924;51.398;7.088;2022-10-18T01:33:32;14.50;99.90
11736;DHT22;5924;51.398;7.088;2022-10-18T01:38:36;14.50;99.90
11736;DHT22;5924;51.398;7.088;2022-10-18T01:41:04;14.50;99.90
11736;DHT22;5924;51.398;7.088;2022-10-18T01:43:31;14.40;99.90
11736;DHT22;5924;51.398;7.088;2022-10-18T01:45:59;14.40;99.90
11736;DHT22;5924;51.398;7.088;2022-10-18T01:48:25;14.40;99.90
11736;DHT22;5924;51.398;7.088;2022-10-18T01:50:51;14.40;99.90
11736;DHT22;5924;51.398;7.088;2022-10-18T01:53:36;14.40;99.90
11736;DHT22;5924;51.398;7.088;2022-10-18T01:56:22;14.40;99.90
11736;DHT22;5924;51.398;7.088;2022-10-18T02:01:59;14.40;99.90
11736;DHT22;5924;51.398;7.088;2022-10-18T02:07:25;14.50;99.90
11736;DHT22;5924;51.398;7.088;2022-10-18T02:10:14;14.50;99.90
11736;DHT22;5924;51.398;7.088;2022-10-18T02:12:43;14.50;99.90
11736;DHT22;5924;51.398;7.088;2022-10-18T02:15:13;14.50;99.90
11736;DHT22;5924;51.398;7.088;2022-10-18T02:17:40;14.40;99.90
11736;DHT22;5924;51.398;7.088;2022-10-18T02:20:08;14.50;99.90
11736;DHT22;5924;51.398;7.088;2022-10-18T02:22:35;14.50;99.90
11736;DHT22;5924;51.398;7.088;2022-10-18T02:25:05;14.50;99.90
11736;DHT22;5924;51.398;7.088;2022-10-18T02:27:35;14.50;99.90
11736;DHT22;5924;51.398;7.088;2022-10-18T02:30:01;14.50;99.90
11736;DHT22;5924;51.398;7.088;2022-10-18T02:32:38;14.40;99.90
11736;DHT22;5924;51.398;7.088;2022-10-18T02:35:12;14.40;99.90
11736;DHT22;5924;51.398;7.088;2022-10-18T02:37:41;14.40;99.90
11736;DHT22;5924;51.398;7.088;2022-10-18T02:40:08;14.40;99.90
11736;DHT22;5924;51.398;7.088;2022-10-18T02:42:37;14.40;99.90
11736;DHT22;5924;51.398;7.088;2022-10-18T02:45:04;14.40;99.90
11736;DHT22;5924;51.398;7.088;2022-10-18T02:47:30;14.40;99.90
11736;DHT22;5924;51.398;7.088;2022-10-18T02:49:56;14.30;99.90
11736;DHT22;5924;51.398;7.088;2022-10-18T02:52:22;14.30;99.90
11736;DHT22;5924;51.398;7.088;2022-10-18T02:54:47;14.30;99.90
11736;DHT22;5924;51.398;7.088;2022-10-18T02:57:13;14.30;99.90
11736;DHT22;5924;51.398;7.088;2022-10-18T02:59:38;14.20;99.90
11736;DHT22;5924;51.398;7.088;2022-10-18T03:02:04;14.30;99.90
11736;DHT22;5924;51.398;7.088;2022-10-18T03:04:30;14.30;99.90
11736;DHT22;5924;51.398;7.088;2022-10-18T03:06:55;14.30;99.90
11736;DHT22;5924;51.398;7.088;2022-10-18T03:09:21;14.30;99.90
11736;DHT22;5924;51.398;7.088;2022-10-18T03:11:46;14.30;99.90
11736;DHT22;5924;51.398;7.088;2022-10-18T03:14:12;14.40;99.90
11736;DHT22;5924;51.398;7.088;2022-10-18T03:16:38;14.40;99.90
11736;DHT22;5924;51.398;7.088;2022-10-18T03:19:04;14.40;99.90
11736;DHT22;5924;51.398;7.088;2022-10-18T03:21:29;14.40;99.90
11736;DHT22;5924;51.398;7.088;2022-10-18T03:23:55;14.40;99.90
11736;DHT22;5924;51.398;7.088;2022-10-18T03:26:21;14.30;99.90
11736;DHT22;5924;51.398;7.088;2022-10-18T03:28:46;14.40;99.90
11736;DHT22;5924;51.398;7.088;2022-10-18T03:31:12;14.40;99.90
11736;DHT22;5924;51.398;7.088;2022-10-18T03:33:38;14.40;99.90
11736;DHT22;5924;51.398;7.088;2022-10-18T03:36:04;14.50;99.90
11736;DHT22;5924;51.398;7.088;2022-10-18T03:38:29;14.50;99.90
11736;DHT22;5924;51.398;7.088;2022-10-18T03:40:55;14.50;99.90
11736;DHT22;5924;51.398;7.088;2022-10-18T03:43:21;14.50;99.90
11736;DHT22;5924;51.398;7.088;2022-10-18T03:45:47;14.50;99.90
11736;DHT22;5924;51.398;7.088;2022-10-18T03:48:13;14.50;99.90
11736;DHT22;5924;51.398;7.088;2022-10-18T03:50:38;14.50;99.90
11736;DHT22;5924;51.398;7.088;2022-10-18T03:53:04;14.50;99.90
11736;DHT22;5924;51.398;7.088;2022-10-18T03:55:29;14.50;99.90
11736;DHT22;5924;51.398;7.088;2022-10-18T03:57:55;14.50;99.90
11736;DHT22;5924;51.398;7.088;2022-10-18T04:00:21;14.50;99.90
11736;DHT22;5924;51.398;7.088;2022-10-18T04:02:47;14.50;99.90
11736;DHT22;5924;51.398;7.088;2022-10-18T04:05:12;14.50;99.90
11736;DHT22;5924;51.398;7.088;2022-10-18T04:07:38;14.50;99.90
11736;DHT22;5924;51.398;7.088;2022-10-18T04:10:04;14.50;99.90
11736;DHT22;5924;51.398;7.088;2022-10-18T04:12:30;14.50;99.90
11736;DHT22;5924;51.398;7.088;2022-10-18T04:14:56;14.40;99.90
11736;DHT22;5924;51.398;7.088;2022-10-18T04:17:21;14.50;99.90
11736;DHT22;5924;51.398;7.088;2022-10-18T04:19:47;14.50;99.90
11736;DHT22;5924;51.398;7.088;2022-10-18T04:22:13;14.50;99.90
11736;DHT22;5924;51.398;7.088;2022-10-18T04:24:39;14.50;99.90
11736;DHT22;5924;51.398;7.088;2022-10-18T04:27:05;14.50;99.90
11736;DHT22;5924;51.398;7.088;2022-10-18T04:29:31;14.50;99.90
11736;DHT22;5924;51.398;7.088;2022-10-18T04:31:57;14.50;99.90
11736;DHT22;5924;51.398;7.088;2022-10-18T04:34:23;14.50;99.90
11736;DHT22;5924;51.398;7.088;2022-10-18T04:36:48;14.60;99.90
11736;DHT22;5924;51.398;7.088;2022-10-18T04:39:14;14.50;99.90
11736;DHT22;5924;51.398;7.088;2022-10-18T04:41:40;14.50;99.90
11736;DHT22;5924;51.398;7.088;2022-10-18T04:44:06;14.60;99.90
11736;DHT22;5924;51.398;7.088;2022-10-18T04:46:32;14.50;99.90
11736;DHT22;5924;51.398;7.088;2022-10-18T04:48:57;14.50;99.90
11736;DHT22;5924;51.398;7.088;2022-10-18T04:51:26;14.50;99.90
11736;DHT22;5924;51.398;7.088;2022-10-18T04:53:51;14.50;99.90
11736;DHT22;5924;51.398;7.088;2022-10-18T04:56:17;14.60;99.90
11736;DHT22;5924;51.398;7.088;2022-10-18T04:58:42;14.60;99.90
11736;DHT22;5924;51.398;7.088;2022-10-18T05:01:08;14.60;99.90
11736;DHT22;5924;51.398;7.088;2022-10-18T05:03:34;14.60;99.90
11736;DHT22;5924;51.398;7.088;2022-10-18T05:05:59;14.60;99.90
11736;DHT22;5924;51.398;7.088;2022-10-18T05:08:25;14.60;99.90
11736;DHT22;5924;51.398;7.088;2022-10-18T05:10:50;14.50;99.90
11736;DHT22;5924;51.398;7.088;2022-10-18T05:13:16;14.60;99.90
11736;DHT22;5924;51.398;7.088;2022-10-18T05:15:42;14.60;99.90
11736;DHT22;5924;51.398;7.088;2022-10-18T05:18:07;14.50;99.90
11736;DHT22;5924;51.398;7.088;2022-10-18T05:20:33;14.50;99.90
11736;DHT22;5924;51.398;7.088;2022-10-18T05:22:58;14.50;99.90
11736;DHT22;5924;51.398;7.088;2022-10-18T05:25:24;14.50;99.90
11736;DHT22;5924;51.398;7.088;2022-10-18T05:27:50;14.50;99.90
11736;DHT22;5924;51.398;7.088;2022-10-18T05:30:15;14.50;99.90
11736;DHT22;5924;51.398;7.088;2022-10-18T05:32:41;14.60;99.90
11736;DHT22;5924;51.398;7.088;2022-10-18T05:35:07;14.50;99.90
11736;DHT22;5924;51.398;7.088;2022-10-18T05:37:32;14.50;99.90
11736;DHT22;5924;51.398;7.088;2022-10-18T05:39:58;14.60;99.90
11736;DHT22;5924;51.398;7.088;2022-10-18T05:42:24;14.50;99.90
11736;DHT22;5924;51.398;7.088;2022-10-18T05:44:49;14.60;99.90
11736;DHT22;5924;51.398;7.088;2022-10-18T05:47:15;14.60;99.90
11736;DHT22;5924;51.398;7.088;2022-10-18T05:49:40;14.60;99.90
11736;DHT22;5924;51.398;7.088;2022-10-18T05:52:06;14.60;99.90
11736;DHT22;5924;51.398;7.088;2022-10-18T05:54:32;14.60;99.90
11736;DHT22;5924;51.398;7.088;2022-10-18T05:56:57;14.60;99.90
11736;DHT22;5924;51.398;7.088;2022-10-18T05:59:23;14.60;99.90
11736;DHT22;5924;51.398;7.088;2022-10-18T06:01:49;14.60;99.90
11736;DHT22;5924;51.398;7.088;2022-10-18T06:04:14;14.60;99.90
11736;DHT22;5924;51.398;7.088;2022-10-18T06:06:42;14.60;99.90
11736;DHT22;5924;51.398;7.088;2022-10-18T06:09:08;14.60;99.90
11736;DHT22;5924;51.398;7.088;2022-10-18T06:11:34;14.60;99.90
11736;DHT22;5924;51.398;7.088;2022-10-18T06:14:00;14.60;99.90
11736;DHT22;5924;51.398;7.088;2022-10-18T06:16:26;14.60;99.90
11736;DHT22;5924;51.398;7.088;2022-10-18T06:18:54;14.70;99.90
11736;DHT22;5924;51.398;7.088;2022-10-18T06:21:21;14.70;99.90
11736;DHT22;5924;51.398;7.088;2022-10-18T06:23:48;14.70;99.90
11736;DHT22;5924;51.398;7.088;2022-10-18T06:26:14;14.70;99.90
11736;DHT22;5924;51.398;7.088;2022-10-18T06:28:40;14.70;99.90
11736;DHT22;5924;51.398;7.088;2022-10-18T06:31:06;14.70;99.90
11736;DHT22;5924;51.398;7.088;2022-10-18T06:33:33;14.70;99.90
11736;DHT22;5924;51.398;7.088;2022-10-18T06:36:01;14.70;99.90
11736;DHT22;5924;51.398;7.088;2022-10-18T06:38:27;14.70;99.90
11736;DHT22;5924;51.398;7.088;2022-10-18T06:40:54;14.80;99.90
11736;DHT22;5924;51.398;7.088;2022-10-18T06:43:20;14.80;99.90
11736;DHT22;5924;51.398;7.088;2022-10-18T06:45:46;14.80;99.90
11736;DHT22;5924;51.398;7.088;2022-10-18T06:48:12;14.70;99.90
11736;DHT22;5924;51.398;7.088;2022-10-18T06:50:38;14.80;99.90
11736;DHT22;5924;51.398;7.088;2022-10-18T06:53:03;14.80;99.90
11736;DHT22;5924;51.398;7.088;2022-10-18T06:55:31;14.80;99.90
11736;DHT22;5924;51.398;7.088;2022-10-18T06:57:56;14.80;99.90
11736;DHT22;5924;51.398;7.088;2022-10-18T07:00:22;14.80;99.90
11736;DHT22;5924;51.398;7.088;2022-10-18T07:02:48;14.80;99.90
11736;DHT22;5924;51.398;7.088;2022-10-18T07:05:13;14.80;99.90
11736;DHT22;5924;51.398;7.088;2022-10-18T07:07:39;14.90;99.90
11736;DHT22;5924;51.398;7.088;2022-10-18T07:10:05;14.90;99.90
11736;DHT22;5924;51.398;7.088;2022-10-18T07:12:31;14.90;99.90
11736;DHT22;5924;51.398;7.088;2022-10-18T07:14:57;15.00;99.90
11736;DHT22;5924;51.398;7.088;2022-10-18T07:17:23;15.00;99.90
11736;DHT22;5924;51.398;7.088;2022-10-18T07:19:49;15.00;99.90
11736;DHT22;5924;51.398;7.088;2022-10-18T07:22:14;15.00;99.90
11736;DHT22;5924;51.398;7.088;2022-10-18T07:24:40;15.00;99.90
11736;DHT22;5924;51.398;7.088;2022-10-18T07:27:06;15.10;99.90
11736;DHT22;5924;51.398;7.088;2022-10-18T07:29:32;15.20;99.90
11736;DHT22;5924;51.398;7.088;2022-10-18T07:31:58;15.20;99.90
11736;DHT22;5924;51.398;7.088;2022-10-18T07:34:24;15.20;99.90
11736;DHT22;5924;51.398;7.088;2022-10-18T07:36:49;15.20;99.90
11736;DHT22;5924;51.398;7.088;2022-10-18T07:39:15;15.20;99.90
11736;DHT22;5924;51.398;7.088;2022-10-18T07:41:41;15.30;99.90
11736;DHT22;5924;51.398;7.088;2022-10-18T07:44:06;15.30;99.90
11736;DHT22;5924;51.398;7.088;2022-10-18T07:46:32;17.50;99.90
11736;DHT22;5924;51.398;7.088;2022-10-18T07:48:58;15.50;99.90
11736;DHT22;5924;51.398;7.088;2022-10-18T07:51:24;15.50;99.90
11736;DHT22;5924;51.398;7.088;2022-10-18T07:53:50;15.50;99.90
11736;DHT22;5924;51.398;7.088;2022-10-18T07:56:18;15.60;99.90
11736;DHT22;5924;51.398;7.088;2022-10-18T07:58:47;15.70;99.90
11736;DHT22;5924;51.398;7.088;2022-10-18T08:01:13;15.70;99.90
11736;DHT22;5924;51.398;7.088;2022-10-18T08:03:40;15.70;99.90
11736;DHT22;5924;51.398;7.088;2022-10-18T08:06:07;15.70;99.90
11736;DHT22;5924;51.398;7.088;2022-10-18T08:08:34;15.80;99.90
11736;DHT22;5924;51.398;7.088;2022-10-18T08:11:02;15.70;99.90
11736;DHT22;5924;51.398;7.088;2022-10-18T08:13:29;15.80;99.90
11736;DHT22;5924;51.398;7.088;2022-10-18T08:16:06;15.80;99.90
11736;DHT22;5924;51.398;7.088;2022-10-18T08:18:32;16.00;99.90
11736;DHT22;5924;51.398;7.088;2022-10-18T08:20:59;15.80;99.90
11736;DHT22;5924;51.398;7.088;2022-10-18T08:23:25;14.60;99.90
11736;DHT22;5924;51.398;7.088;2022-10-18T08:25:51;16.10;99.90
11736;DHT22;5924;51.398;7.088;2022-10-18T08:28:16;16.20;99.90
11736;DHT22;5924;51.398;7.088;2022-10-18T08:30:42;16.20;99.90
11736;DHT22;5924;51.398;7.088;2022-10-18T08:33:08;16.20;99.90
11736;DHT22;5924;51.398;7.088;2022-10-18T08:35:34;16.20;99.90
11736;DHT22;5924;51.398;7.088;2022-10-18T08:37:59;16.10;99.90
11736;DHT22;5924;51.398;7.088;2022-10-18T08:40:26;16.10;99.90
11736;DHT22;5924;51.398;7.088;2022-10-18T08:45:25;16.00;99.90
11736;DHT22;5924;51.398;7.088;2022-10-18T08:47:52;16.00;99.90
11736;DHT22;5924;51.398;7.088;2022-10-18T08:50:33;16.00;99.90
11736;DHT22;5924;51.398;7.088;2022-10-18T08:53:21;17.20;99.90
11736;DHT22;5924;51.398;7.088;2022-10-18T08:55:51;16.00;99.90
11736;DHT22;5924;51.398;7.088;2022-10-18T08:58:21;16.10;99.90
11736;DHT22;5924;51.398;7.088;2022-10-18T09:01:29;16.10;99.90
11736;DHT22;5924;51.398;7.088;2022-10-18T09:07:01;16.00;99.90
11736;DHT22;5924;51.398;7.088;2022-10-18T09:15:19;15.90;99.90
11736;DHT22;5924;51.398;7.088;2022-10-18T09:17:49;16.00;99.90
11736;DHT22;5924;51.398;7.088;2022-10-18T09:20:24;15.90;99.90
11736;DHT22;5924;51.398;7.088;2022-10-18T09:23:10;16.00;99.90
11736;DHT22;5924;51.398;7.088;2022-10-18T09:25:48;15.90;99.90
11736;DHT22;5924;51.398;7.088;2022-10-18T09:36:22;16.20;99.90
11736;DHT22;5924;51.398;7.088;2022-10-18T09:38:52;16.30;99.90
11736;DHT22;5924;51.398;7.088;2022-10-18T09:41:29;16.40;99.90
11736;DHT22;5924;51.398;7.088;2022-10-18T09:44:01;16.40;99.90
11736;DHT22;5924;51.398;7.088;2022-10-18T09:46:32;16.50;99.90
11736;DHT22;5924;51.398;7.088;2022-10-18T09:49:10;16.40;99.90
11736;DHT22;5924;51.398;7.088;2022-10-18T09:51:39;16.40;99.90
11736;DHT22;5924;51.398;7.088;2022-10-18T09:54:13;16.40;99.90
11736;DHT22;5924;51.398;7.088;2022-10-18T09:59:28;16.80;99.90
11736;DHT22;5924;51.398;7.088;2022-10-18T10:01:55;17.50;99.90
11736;DHT22;5924;51.398;7.088;2022-10-18T10:04:21;16.90;99.90
11736;DHT22;5924;51.398;7.088;2022-10-18T10:06:51;16.90;99.90
11736;DHT22;5924;51.398;7.088;2022-10-18T10:09:24;16.90;99.90
11736;DHT22;5924;51.398;7.088;2022-10-18T10:11:51;16.90;99.90
11736;DHT22;5924;51.398;7.088;2022-10-18T10:14:18;16.90;99.90
11736;DHT22;5924;51.398;7.088;2022-10-18T10:19:35;17.00;99.90
11736;DHT22;5924;51.398;7.088;2022-10-18T10:22:07;17.10;99.90
11736;DHT22;5924;51.398;7.088;2022-10-18T10:24:53;17.20;99.90
11736;DHT22;5924;51.398;7.088;2022-10-18T10:27:42;17.60;99.90
11736;DHT22;5924;51.398;7.088;2022-10-18T10:30:34;17.90;99.90
11736;DHT22;5924;51.398;7.088;2022-10-18T10:33:01;18.10;99.90
11736;DHT22;5924;51.398;7.088;2022-10-18T10:35:35;18.10;99.90
11736;DHT22;5924;51.398;7.088;2022-10-18T10:38:01;18.30;99.90
11736;DHT22;5924;51.398;7.088;2022-10-18T10:40:33;18.50;99.90
11736;DHT22;5924;51.398;7.088;2022-10-18T10:46:04;18.70;99.90
11736;DHT22;5924;51.398;7.088;2022-10-18T10:48:33;18.40;99.90
11736;DHT22;5924;51.398;7.088;2022-10-18T10:51:04;18.10;99.90
11736;DHT22;5924;51.398;7.088;2022-10-18T10:54:00;17.80;99.90
11736;DHT22;5924;51.398;7.088;2022-10-18T10:56:29;17.60;99.90
11736;DHT22;5924;51.398;7.088;2022-10-18T10:59:15;17.40;99.90
11736;DHT22;5924;51.398;7.088;2022-10-18T11:01:41;17.30;99.90
11736;DHT22;5924;51.398;7.088;2022-10-18T11:04:29;17.20;99.90
11736;DHT22;5924;51.398;7.088;2022-10-18T11:07:18;17.00;99.90
11736;DHT22;5924;51.398;7.088;2022-10-18T11:10:02;17.00;99.90
11736;DHT22;5924;51.398;7.088;2022-10-18T11:21:15;17.50;99.90
11736;DHT22;5924;51.398;7.088;2022-10-18T11:23:43;17.90;99.90
11736;DHT22;5924;51.398;7.088;2022-10-18T11:31:50;18.80;99.90
11736;DHT22;5924;51.398;7.088;2022-10-18T11:36:53;19.60;99.90
11736;DHT22;5924;51.398;7.088;2022-10-18T11:50:47;19.50;99.90
11736;DHT22;5924;51.398;7.088;2022-10-18T11:53:35;19.40;99.90
11736;DHT22;5924;51.398;7.088;2022-10-18T11:56:29;19.20;99.90
11736;DHT22;5924;51.398;7.088;2022-10-18T12:01:59;19.00;99.90
11736;DHT22;5924;51.398;7.088;2022-10-18T12:04:33;19.20;99.90
11736;DHT22;5924;51.398;7.088;2022-10-18T12:06:59;19.40;99.90
11736;DHT22;5924;51.398;7.088;2022-10-18T12:09:43;19.50;99.90
11736;DHT22;5924;51.398;7.088;2022-10-18T12:12:29;19.60;99.90
11736;DHT22;5924;51.398;7.088;2022-10-18T12:15:18;19.60;99.90
11736;DHT22;5924;51.398;7.088;2022-10-18T12:17:49;19.70;99.90
11736;DHT22;5924;51.398;7.088;2022-10-18T12:23:00;19.90;99.90
11736;DHT22;5924;51.398;7.088;2022-10-18T12:25:33;20.00;99.90
11736;DHT22;5924;51.398;7.088;2022-10-18T12:33:41;21.20;99.90
11736;DHT22;5924;51.398;7.088;2022-10-18T12:41:29;23.30;99.90
11736;DHT22;5924;51.398;7.088;2022-10-18T12:44:28;24.30;99.90
11736;DHT22;5924;51.398;7.088;2022-10-18T12:46:55;24.50;99.90
11736;DHT22;5924;51.398;7.088;2022-10-18T12:51:55;24.20;99.90
11736;DHT22;5924;51.398;7.088;2022-10-18T12:54:36;23.70;99.90
11736;DHT22;5924;51.398;7.088;2022-10-18T12:57:04;23.00;99.90
11736;DHT22;5924;51.398;7.088;2022-10-18T13:09:42;21.60;99.90
11736;DHT22;5924;51.398;7.088;2022-10-18T13:19:56;19.90;99.90
11736;DHT22;5924;51.398;7.088;2022-10-18T13:25:18;19.30;99.90
11736;DHT22;5924;51.398;7.088;2022-10-18T13:33:38;19.20;99.90
11736;DHT22;5924;51.398;7.088;2022-10-18T13:41:22;19.20;99.90
11736;DHT22;5924;51.398;7.088;2022-10-18T13:47:11;19.20;99.90
11736;DHT22;5924;51.398;7.088;2022-10-18T14:07:47;18.60;99.90
11736;DHT22;5924;51.398;7.088;2022-10-18T14:10:25;18.90;99.90
11736;DHT22;5924;51.398;7.088;2022-10-18T14:12:56;19.00;99.90
11736;DHT22;5924;51.398;7.088;2022-10-18T14:15:30;19.00;99.90
11736;DHT22;5924;51.398;7.088;2022-10-18T14:18:03;18.90;99.90
11736;DHT22;5924;51.398;7.088;2022-10-18T14:20:50;18.90;99.90
11736;DHT22;5924;51.398;7.088;2022-10-18T14:23:18;18.80;99.90
11736;DHT22;5924;51.398;7.088;2022-10-18T14:25:44;18.70;99.90
11736;DHT22;5924;51.398;7.088;2022-10-18T14:28:16;18.60;99.90
11736;DHT22;5924;51.398;7.088;2022-10-18T14:31:04;18.50;99.90
11736;DHT22;5924;51.398;7.088;2022-10-18T14:33:52;18.40;99.90
11736;DHT22;5924;51.398;7.088;2022-10-18T14:41:34;18.00;99.90
11736;DHT22;5924;51.398;7.088;2022-10-18T14:44:20;17.30;99.90
11736;DHT22;5924;51.398;7.088;2022-10-18T14:49:15;17.70;99.90
11736;DHT22;5924;51.398;7.088;2022-10-18T14:51:43;17.60;99.90
11736;DHT22;5924;51.398;7.088;2022-10-18T14:54:22;17.50;99.90
11736;DHT22;5924;51.398;7.088;2022-10-18T14:56:48;17.40;99.90
11736;DHT22;5924;51.398;7.088;2022-10-18T14:59:24;17.40;99.90
11736;DHT22;5924;51.398;7.088;2022-10-18T15:04:17;17.30;99.90
11736;DHT22;5924;51.398;7.088;2022-10-18T15:06:43;17.30;99.90
11736;DHT22;5924;51.398;7.088;2022-10-18T15:09:10;17.20;99.90
11736;DHT22;5924;51.398;7.088;2022-10-18T15:11:38;17.20;99.90
11736;DHT22;5924;51.398;7.088;2022-10-18T15:14:13;17.10;99.90
11736;DHT22;5924;51.398;7.088;2022-10-18T15:16:38;17.10;99.90
11736;DHT22;5924;51.398;7.088;2022-10-18T15:21:55;17.00;99.90
11736;DHT22;5924;51.398;7.088;2022-10-18T15:24:36;16.90;99.90
11736;DHT22;5924;51.398;7.088;2022-10-18T15:27:18;16.90;99.90
11736;DHT22;5924;51.398;7.088;2022-10-18T15:29:45;14.80;99.90
11736;DHT22;5924;51.398;7.088;2022-10-18T15:32:23;16.70;99.90
11736;DHT22;5924;51.398;7.088;2022-10-18T15:34:50;16.70;99.90
11736;DHT22;5924;51.398;7.088;2022-10-18T15:42:42;16.50;99.90
11736;DHT22;5924;51.398;7.088;2022-10-18T15:45:37;16.50;99.90
11736;DHT22;5924;51.398;7.088;2022-10-18T15:50:53;16.30;99.90
11736;DHT22;5924;51.398;7.088;2022-10-18T15:56:01;16.10;99.90
11736;DHT22;5924;51.398;7.088;2022-10-18T15:58:36;16.00;99.90
11736;DHT22;5924;51.398;7.088;2022-10-18T16:01:03;15.80;99.90
11736;DHT22;5924;51.398;7.088;2022-10-18T16:03:33;15.70;99.90
11736;DHT22;5924;51.398;7.088;2022-10-18T16:06:04;15.60;99.90
11736;DHT22;5924;51.398;7.088;2022-10-18T16:08:30;15.50;99.90
11736;DHT22;5924;51.398;7.088;2022-10-18T16:10:57;15.40;99.90
11736;DHT22;5924;51.398;7.088;2022-10-18T16:13:24;15.30;99.90
11736;DHT22;5924;51.398;7.088;2022-10-18T16:15:50;15.20;99.90
11736;DHT22;5924;51.398;7.088;2022-10-18T16:18:18;17.50;99.90
11736;DHT22;5924;51.398;7.088;2022-10-18T16:20:45;15.00;99.90
11736;DHT22;5924;51.398;7.088;2022-10-18T16:23:20;14.80;99.90
11736;DHT22;5924;51.398;7.088;2022-10-18T16:25:46;14.60;99.90
11736;DHT22;5924;51.398;7.088;2022-10-18T16:28:14;14.50;99.90
11736;DHT22;5924;51.398;7.088;2022-10-18T16:30:43;14.30;99.90
11736;DHT22;5924;51.398;7.088;2022-10-18T16:33:09;14.20;99.90
11736;DHT22;5924;51.398;7.088;2022-10-18T16:35:35;14.00;99.90
11736;DHT22;5924;51.398;7.088;2022-10-18T16:38:00;13.80;99.90
11736;DHT22;5924;51.398;7.088;2022-10-18T16:40:27;13.60;99.90
11736;DHT22;5924;51.398;7.088;2022-10-18T16:42:52;13.50;99.90
11736;DHT22;5924;51.398;7.088;2022-10-18T16:45:18;13.40;99.90
11736;DHT22;5924;51.398;7.088;2022-10-18T16:47:44;13.20;99.90
11736;DHT22;5924;51.398;7.088;2022-10-18T16:50:14;13.10;99.90
11736;DHT22;5924;51.398;7.088;2022-10-18T16:52:40;13.00;99.90
11736;DHT22;5924;51.398;7.088;2022-10-18T16:55:06;12.90;99.90
11736;DHT22;5924;51.398;7.088;2022-10-18T16:57:39;12.70;99.90
11736;DHT22;5924;51.398;7.088;2022-10-18T17:00:06;12.60;99.90
11736;DHT22;5924;51.398;7.088;2022-10-18T17:02:31;12.50;99.90
11736;DHT22;5924;51.398;7.088;2022-10-18T17:04:57;11.00;99.90
11736;DHT22;5924;51.398;7.088;2022-10-18T17:07:24;12.30;99.90
11736;DHT22;5924;51.398;7.088;2022-10-18T17:09:49;12.20;99.90
11736;DHT22;5924;51.398;7.088;2022-10-18T17:12:15;12.20;99.90
11736;DHT22;5924;51.398;7.088;2022-10-18T17:14:41;13.10;99.90
11736;DHT22;5924;51.398;7.088;2022-10-18T17:17:10;12.00;99.90
11736;DHT22;5924;51.398;7.088;2022-10-18T17:19:36;11.90;99.90
11736;DHT22;5924;51.398;7.088;2022-10-18T17:22:02;11.80;99.90
11736;DHT22;5924;51.398;7.088;2022-10-18T17:24:27;11.80;99.90
11736;DHT22;5924;51.398;7.088;2022-10-18T17:26:53;11.70;99.90
11736;DHT22;5924;51.398;7.088;2022-10-18T17:29:19;11.70;99.90
11736;DHT22;5924;51.398;7.088;2022-10-18T17:31:44;11.60;99.90
11736;DHT22;5924;51.398;7.088;2022-10-18T17:34:10;11.50;99.90
11736;DHT22;5924;51.398;7.088;2022-10-18T17:36:35;11.40;99.90
11736;DHT22;5924;51.398;7.088;2022-10-18T17:39:01;11.40;99.90
11736;DHT22;5924;51.398;7.088;2022-10-18T17:41:27;11.30;99.90
11736;DHT22;5924;51.398;7.088;2022-10-18T17:43:53;11.30;99.90
11736;DHT22;5924;51.398;7.088;2022-10-18T17:46:18;11.20;99.90
11736;DHT22;5924;51.398;7.088;2022-10-18T17:48:44;11.10;99.90
11736;DHT22;5924;51.398;7.088;2022-10-18T17:51:13;11.00;99.90
11736;DHT22;5924;51.398;7.088;2022-10-18T17:53:39;11.00;99.90
11736;DHT22;5924;51.398;7.088;2022-10-18T17:56:05;10.90;99.90
11736;DHT22;5924;51.398;7.088;2022-10-18T17:58:32;10.80;99.90
11736;DHT22;5924;51.398;7.088;2022-10-18T18:01:11;10.80;99.90
11736;DHT22;5924;51.398;7.088;2022-10-18T18:03:37;10.80;99.90
11736;DHT22;5924;51.398;7.088;2022-10-18T18:06:20;10.60;99.90
11736;DHT22;5924;51.398;7.088;2022-10-18T18:08:46;10.60;99.90
11736;DHT22;5924;51.398;7.088;2022-10-18T18:11:13;10.60;99.90
11736;DHT22;5924;51.398;7.088;2022-10-18T18:13:39;10.60;99.90
11736;DHT22;5924;51.398;7.088;2022-10-18T18:16:11;10.60;99.90
11736;DHT22;5924;51.398;7.088;2022-10-18T18:18:37;10.50;99.90
11736;DHT22;5924;51.398;7.088;2022-10-18T18:21:03;10.40;99.90
11736;DHT22;5924;51.398;7.088;2022-10-18T18:23:29;10.40;99.90
11736;DHT22;5924;51.398;7.088;2022-10-18T18:25:55;10.40;99.90
11736;DHT22;5924;51.398;7.088;2022-10-18T18:28:21;10.30;99.90
11736;DHT22;5924;51.398;7.088;2022-10-18T18:30:47;10.10;99.90
11736;DHT22;5924;51.398;7.088;2022-10-18T18:33:12;10.10;99.90
11736;DHT22;5924;51.398;7.088;2022-10-18T18:35:38;9.90;99.90
11736;DHT22;5924;51.398;7.088;2022-10-18T18:38:03;9.90;99.90
11736;DHT22;5924;51.398;7.088;2022-10-18T18:40:29;9.90;99.90
11736;DHT22;5924;51.398;7.088;2022-10-18T18:42:55;9.90;99.90
11736;DHT22;5924;51.398;7.088;2022-10-18T18:45:20;9.90;99.90
11736;DHT22;5924;51.398;7.088;2022-10-18T18:47:46;9.90;99.90
11736;DHT22;5924;51.398;7.088;2022-10-18T18:50:12;9.80;99.90
11736;DHT22;5924;51.398;7.088;2022-10-18T18:52:37;9.80;99.90